Terminal Aerodrome Forecast
Issued by NWS Shreveport, LA

Home | Current Version | Previous Version | Text Only | Print | Product List | Glossary On
Versions: 1 2 3 4 5 6 7 8 9 10 11 12 13 14 15 16 17 18 19 20 21 22 23
000
FTUS44 KSHV 241149
TAFLFK
TAF
KLFK 241149Z 2412/2512 13006KT P6SM OVC007
     FM241300 15010KT P6SM VCSH BKN010 BKN020
     FM241500 16013G20KT 5SM -TSRA BR OVC020CB
     FM242100 16014G22KT P6SM VCTS OVC025CB
     FM250000 15010KT 5SM BR OVC015=

USA.gov is the U.S. government's official web portal to all federal, state and local government web resources and services.